createdAt,value
2022-10-13T00:01:12.871Z,96981.34
2022-10-13T00:03:40.936Z,96982.44
2022-10-13T00:06:13.938Z,96980.88
2022-10-13T00:08:44.450Z,96985.63
2022-10-13T00:11:12.954Z,96982.41
2022-10-13T00:13:40.917Z,96986.09
2022-10-13T00:16:09.503Z,96986.41
2022-10-13T00:18:37.284Z,96980.72
2022-10-13T00:21:07.846Z,96970.84
2022-10-13T00:23:38.397Z,96968.63
2022-10-13T00:26:06.951Z,96967.19
2022-10-13T00:28:34.751Z,96973.44
2022-10-13T00:31:02.514Z,96973.16
2022-10-13T00:33:30.014Z,96967.25
2022-10-13T00:36:03.191Z,96970.75
2022-10-13T00:38:34.479Z,96961.94
2022-10-13T00:41:03.407Z,96962.94
2022-10-13T00:43:45.843Z,96966.59
2022-10-13T00:46:13.437Z,96972.44
2022-10-13T00:48:41.241Z,96967.91
2022-10-13T00:51:08.885Z,96966.63
2022-10-13T00:53:37.056Z,96974.53
2022-10-13T00:56:07.606Z,96964.69
2022-10-13T00:58:35.566Z,96966.00
2022-10-13T01:01:03.477Z,96966.63
2022-10-13T01:03:31.487Z,96954.88
2022-10-13T01:06:00.638Z,96956.13
2022-10-13T01:08:30.385Z,96956.13
2022-10-13T01:10:59.822Z,96959.47
2022-10-13T01:13:31.958Z,96714.66
2022-10-13T01:16:01.000Z,96963.25
2022-10-13T01:18:31.133Z,96959.03
2022-10-13T01:21:01.896Z,96963.06
2022-10-13T01:23:39.508Z,96964.06
2022-10-13T01:26:29.405Z,96961.75
2022-10-13T01:29:17.798Z,96955.34
2022-10-13T01:31:47.529Z,96950.78
2022-10-13T01:34:22.556Z,96951.34
2022-10-13T01:36:52.093Z,96953.53
2022-10-13T01:39:22.427Z,96945.00
2022-10-13T01:41:51.343Z,96953.00
2022-10-13T01:44:19.758Z,96878.78
2022-10-13T01:46:50.752Z,96944.22
2022-10-13T01:49:18.754Z,96941.28
2022-10-13T01:51:47.112Z,96937.59
2022-10-13T01:54:14.900Z,96942.59
2022-10-13T01:56:49.509Z,96936.75
2022-10-13T01:59:17.468Z,96940.47
2022-10-13T02:01:48.834Z,96704.84
2022-10-13T02:04:24.425Z,96933.53
2022-10-13T02:06:53.256Z,96935.97
2022-10-13T02:09:22.453Z,96936.69
2022-10-13T02:11:50.974Z,96931.88
2022-10-13T02:14:19.748Z,96933.69
2022-10-13T02:16:47.374Z,96929.94
2022-10-13T02:19:16.584Z,96937.44
2022-10-13T02:21:46.222Z,96937.72
2022-10-13T02:24:16.510Z,96938.22
2022-10-13T02:26:44.285Z,96937.72
2022-10-13T02:29:12.648Z,96942.00
2022-10-13T02:31:41.176Z,96931.16
2022-10-13T02:34:09.146Z,96930.72
2022-10-13T02:36:37.875Z,96923.03
2022-10-13T02:39:07.618Z,96930.72
2022-10-13T02:41:36.550Z,96929.44
2022-10-13T02:44:06.973Z,96928.66
2022-10-13T02:46:37.174Z,96929.03
2022-10-13T02:49:04.821Z,96921.91
2022-10-13T02:51:41.586Z,96922.56
2022-10-13T02:54:10.900Z,96921.53
2022-10-13T02:56:38.462Z,96924.81
2022-10-13T02:59:08.319Z,96931.06
2022-10-13T03:01:46.488Z,96923.06
2022-10-13T03:04:14.078Z,96920.34
2022-10-13T03:06:46.544Z,96917.03
2022-10-13T03:09:15.535Z,96916.19
2022-10-13T03:11:45.979Z,96913.69
2022-10-13T03:14:13.600Z,96926.94
2022-10-13T03:16:44.730Z,96924.69
2022-10-13T03:19:17.978Z,96919.94
2022-10-13T03:21:48.598Z,96925.88
2022-10-13T03:24:19.475Z,96949.66
2022-10-13T03:26:49.914Z,96901.50
2022-10-13T03:29:18.308Z,96901.34
2022-10-13T03:31:48.272Z,96739.09
2022-10-13T03:34:16.877Z,96894.84
2022-10-13T03:36:44.785Z,96890.56
2022-10-13T03:39:13.362Z,96917.25
2022-10-13T03:41:43.001Z,96897.50
2022-10-13T03:44:12.627Z,96907.72
2022-10-13T03:46:40.358Z,96910.78
2022-10-13T03:49:13.578Z,96906.38
2022-10-13T03:51:41.370Z,96909.63
2022-10-13T03:54:10.743Z,96906.66
2022-10-13T03:56:46.869Z,96899.00
2022-10-13T03:59:17.053Z,96909.41
2022-10-13T04:01:44.683Z,96908.75
2022-10-13T04:04:12.807Z,96905.69
2022-10-13T04:06:43.597Z,96905.06
2022-10-13T04:09:12.631Z,96898.22
2022-10-13T04:11:40.225Z,96897.22
2022-10-13T04:14:11.489Z,96893.06
2022-10-13T04:16:40.862Z,96890.66
2022-10-13T04:19:09.334Z,96894.53
2022-10-13T04:21:37.274Z,96892.38
2022-10-13T04:24:09.787Z,96895.72
2022-10-13T04:26:37.775Z,96902.69
2022-10-13T04:29:05.571Z,96902.13
2022-10-13T04:31:33.283Z,96903.44
2022-10-13T04:34:04.081Z,96904.78
2022-10-13T04:36:31.700Z,96899.25
2022-10-13T04:39:01.974Z,96902.03
2022-10-13T04:41:29.742Z,96902.56
2022-10-13T04:44:02.327Z,96898.28
2022-10-13T04:46:41.366Z,96896.13
2022-10-13T04:49:12.665Z,96888.91
2022-10-13T04:51:40.205Z,96887.25
2022-10-13T04:54:07.817Z,96880.69
2022-10-13T04:56:35.551Z,96920.28
2022-10-13T04:59:05.313Z,96879.63
2022-10-13T05:01:33.428Z,96882.03
2022-10-13T05:04:04.428Z,96893.19
2022-10-13T05:06:35.521Z,96883.84
2022-10-13T05:09:03.070Z,96890.72
2022-10-13T05:11:30.924Z,96898.44
2022-10-13T05:13:59.908Z,96905.88
2022-10-13T05:16:27.798Z,96904.22
2022-10-13T05:18:55.738Z,96899.50
2022-10-13T05:21:29.298Z,96898.47
2022-10-13T05:24:00.421Z,96901.63
2022-10-13T05:26:30.474Z,96899.78
2022-10-13T05:28:58.683Z,96892.94
2022-10-13T05:31:27.180Z,96896.31
2022-10-13T05:33:54.887Z,96897.91
2022-10-13T05:36:23.597Z,96900.59
2022-10-13T05:38:51.849Z,96938.03
2022-10-13T05:41:24.311Z,96903.25
2022-10-13T05:43:52.710Z,96910.19
2022-10-13T05:46:20.378Z,96912.28
2022-10-13T05:48:48.205Z,96900.59
2022-10-13T05:51:19.950Z,96901.38
2022-10-13T05:53:51.907Z,96892.06
2022-10-13T05:56:25.195Z,96892.63
2022-10-13T05:58:53.625Z,96893.41
2022-10-13T06:01:23.005Z,96893.13
2022-10-13T06:03:50.780Z,96885.44
2022-10-13T06:06:18.791Z,96881.47
2022-10-13T06:08:46.538Z,96872.25
2022-10-13T06:11:14.255Z,96878.50
2022-10-13T06:13:43.278Z,96880.25
2022-10-13T06:16:11.018Z,96888.81
2022-10-13T06:18:39.441Z,96888.06
2022-10-13T06:21:07.444Z,96888.28
2022-10-13T06:23:35.346Z,96885.66
2022-10-13T06:26:11.310Z,96887.63
2022-10-13T06:28:43.329Z,96880.13
2022-10-13T06:31:14.488Z,96920.47
2022-10-13T06:33:45.079Z,96883.94
2022-10-13T06:36:14.561Z,96883.50
2022-10-13T06:38:45.459Z,96879.53
2022-10-13T06:41:15.480Z,96876.28
2022-10-13T06:43:45.017Z,96879.59
2022-10-13T06:46:17.050Z,96870.88
2022-10-13T06:48:46.514Z,96869.19
2022-10-13T06:51:14.354Z,96863.56
2022-10-13T06:53:45.000Z,96867.47
2022-10-13T06:56:14.789Z,96872.16
2022-10-13T06:58:42.478Z,96871.16
2022-10-13T07:01:12.651Z,96878.56
2022-10-13T07:03:45.815Z,96874.16
2022-10-13T07:06:16.566Z,96858.25
2022-10-13T07:08:44.462Z,96875.41
2022-10-13T07:11:16.249Z,96882.47
2022-10-13T07:13:46.612Z,96880.94
2022-10-13T07:16:17.898Z,96879.19
2022-10-13T07:18:51.878Z,96889.13
2022-10-13T07:21:21.002Z,96887.72
2022-10-13T07:23:51.485Z,96889.94
2022-10-13T07:26:22.662Z,96880.84
2022-10-13T07:28:51.174Z,96881.47
2022-10-13T07:31:20.297Z,96886.22
2022-10-13T07:33:53.715Z,96883.22
2022-10-13T07:36:21.851Z,96885.63
2022-10-13T07:38:49.928Z,96882.47
2022-10-13T07:41:18.031Z,96876.75
2022-10-13T07:43:48.249Z,96878.03
2022-10-13T07:46:16.294Z,96829.47
2022-10-13T07:48:45.586Z,96866.06
2022-10-13T07:51:16.152Z,96864.47
2022-10-13T07:53:44.505Z,96858.94
2022-10-13T07:56:12.838Z,96635.25
2022-10-13T07:58:41.166Z,96862.28
2022-10-13T08:01:09.200Z,96854.25
2022-10-13T08:03:39.404Z,96848.69
2022-10-13T08:06:08.948Z,96841.56
2022-10-13T08:08:40.142Z,96844.97
2022-10-13T08:11:12.422Z,96845.72
2022-10-13T08:13:44.315Z,96845.50
2022-10-13T08:16:12.032Z,96834.34
2022-10-13T08:18:39.688Z,96831.16
2022-10-13T08:23:59.958Z,96841.19
2022-10-13T08:26:28.299Z,96837.38
2022-10-13T08:29:20.698Z,96836.53
2022-10-13T08:34:23.642Z,96859.84
2022-10-13T08:36:53.498Z,96836.69
2022-10-13T08:39:25.299Z,96836.41
2022-10-13T08:41:56.382Z,96834.69
2022-10-13T08:47:17.399Z,96821.63
2022-10-13T08:49:49.010Z,96815.88
2022-10-13T08:52:19.631Z,96830.31
2022-10-13T08:54:52.333Z,96829.88
2022-10-13T08:57:20.463Z,96836.53
2022-10-13T08:59:49.548Z,96835.88
2022-10-13T09:02:24.192Z,96830.41
2022-10-13T09:04:54.991Z,96831.75
2022-10-13T09:07:24.238Z,96835.78
2022-10-13T09:09:57.100Z,96831.22
2022-10-13T09:12:25.179Z,96828.28
2022-10-13T09:14:59.505Z,96708.91
2022-10-13T09:17:30.667Z,96835.78
2022-10-13T09:19:59.860Z,96833.25
2022-10-13T09:22:28.356Z,96835.63
2022-10-13T09:25:17.517Z,96828.69
2022-10-13T09:27:47.263Z,96836.97
2022-10-13T09:30:42.249Z,96835.53
2022-10-13T09:33:19.247Z,96833.25
2022-10-13T09:35:47.891Z,96825.59
2022-10-13T09:38:16.909Z,96825.09
2022-10-13T09:40:46.891Z,96820.38
2022-10-13T09:43:21.480Z,96825.75
2022-10-13T09:45:49.067Z,96822.25
2022-10-13T09:48:19.887Z,96822.16
2022-10-13T09:50:49.210Z,96828.09
2022-10-13T09:53:19.622Z,96814.50
2022-10-13T09:55:49.683Z,96818.31
2022-10-13T09:58:19.866Z,96816.75
2022-10-13T10:00:48.764Z,96814.72
2022-10-13T10:03:17.788Z,96821.03
2022-10-13T10:05:47.705Z,96814.53
2022-10-13T10:08:17.106Z,96824.44
2022-10-13T10:10:44.751Z,96820.06
2022-10-13T10:13:14.644Z,96814.84
2022-10-13T10:15:45.705Z,96819.75
2022-10-13T10:18:15.010Z,96816.09
2022-10-13T10:20:48.587Z,96812.28
2022-10-13T10:23:20.978Z,96813.31
2022-10-13T10:25:52.406Z,96819.53
2022-10-13T10:28:30.220Z,96816.72
2022-10-13T10:30:59.012Z,96811.34
2022-10-13T10:33:28.969Z,96813.34
2022-10-13T10:35:57.699Z,96808.59
2022-10-13T10:38:33.663Z,96810.91
2022-10-13T10:41:03.342Z,96808.91
2022-10-13T10:43:45.471Z,96805.69
2022-10-13T10:46:18.239Z,96794.31
2022-10-13T10:48:46.544Z,96788.88
2022-10-13T10:51:14.378Z,96783.81
2022-10-13T10:53:47.821Z,96782.31
2022-10-13T10:56:17.268Z,96778.75
2022-10-13T10:58:51.434Z,96770.13
2022-10-13T11:01:24.631Z,96766.78
2022-10-13T11:03:55.747Z,96756.38
2022-10-13T11:06:24.618Z,96762.19
2022-10-13T11:09:00.430Z,96759.56
2022-10-13T11:11:37.743Z,96759.88
2022-10-13T11:14:25.054Z,96756.84
2022-10-13T11:17:11.809Z,96750.06
2022-10-13T11:19:40.750Z,96744.28
2022-10-13T11:22:13.352Z,96739.66
2022-10-13T11:24:57.150Z,96741.03
2022-10-13T11:27:43.918Z,96742.06
2022-10-13T11:30:30.526Z,96736.34
2022-10-13T11:33:19.168Z,96728.66
2022-10-13T11:35:47.044Z,96736.41
2022-10-13T11:38:22.495Z,96729.34
2022-10-13T11:40:59.425Z,96728.31
2022-10-13T11:43:32.889Z,96722.09
2022-10-13T11:46:06.826Z,96723.59
2022-10-13T11:48:53.602Z,96725.72
2022-10-13T11:51:27.033Z,96711.13
2022-10-13T11:53:55.703Z,96713.50
2022-10-13T11:56:24.171Z,96697.00
2022-10-13T11:58:57.029Z,96694.94
2022-10-13T12:01:27.899Z,96686.09
2022-10-13T12:03:57.624Z,96694.75
2022-10-13T12:06:33.778Z,96679.63
2022-10-13T12:09:06.302Z,96680.09
2022-10-13T12:11:35.886Z,96674.78
2022-10-13T12:14:04.511Z,96672.25
2022-10-13T12:16:32.263Z,96667.06
2022-10-13T12:19:10.008Z,96660.00
2022-10-13T12:21:51.637Z,96658.38
2022-10-13T12:24:23.005Z,96654.09
2022-10-13T12:26:50.745Z,96648.00
2022-10-13T12:29:21.393Z,96642.22
2022-10-13T12:31:52.797Z,96644.44
2022-10-13T12:34:22.002Z,96647.44
2022-10-13T12:36:57.077Z,96640.22
2022-10-13T12:39:25.554Z,96631.78
2022-10-13T12:41:53.264Z,96645.47
2022-10-13T12:45:10.385Z,96629.16
2022-10-13T12:47:39.930Z,96634.53
2022-10-13T12:50:27.446Z,96631.06
2022-10-13T12:53:07.310Z,96633.31
2022-10-13T12:55:35.298Z,96625.47
2022-10-13T12:58:05.908Z,96622.50
2022-10-13T13:00:33.525Z,96630.19
2022-10-13T13:03:03.260Z,96630.59
2022-10-13T13:05:31.803Z,96628.72
2022-10-13T13:08:01.787Z,96631.91
2022-10-13T13:10:31.610Z,96627.44
2022-10-13T13:13:14.494Z,96626.75
2022-10-13T13:15:42.484Z,96622.97
2022-10-13T13:18:31.548Z,96622.94
2022-10-13T13:20:59.482Z,96622.69
2022-10-13T13:23:34.120Z,96617.59
2022-10-13T13:26:04.221Z,96397.25
2022-10-13T13:28:35.728Z,96621.63
2022-10-13T13:31:05.568Z,96618.34
2022-10-13T13:33:33.809Z,96618.56
2022-10-13T13:36:01.875Z,96616.97
2022-10-13T13:38:31.083Z,96621.84
2022-10-13T13:41:03.060Z,96622.44
2022-10-13T13:43:31.959Z,96628.19
2022-10-13T13:45:59.561Z,96629.97
2022-10-13T13:48:27.779Z,96407.19
2022-10-13T13:50:58.772Z,96633.81
2022-10-13T13:53:26.776Z,96629.31
2022-10-13T13:55:57.317Z,96632.44
2022-10-13T13:58:25.104Z,96631.25
2022-10-13T14:00:53.059Z,96643.28
2022-10-13T14:03:20.674Z,96647.09
2022-10-13T14:05:48.384Z,96653.19
2022-10-13T14:08:15.937Z,96637.50
2022-10-13T14:10:43.578Z,96618.25
2022-10-13T14:13:13.791Z,96623.78
2022-10-13T14:15:42.903Z,96644.59
2022-10-13T14:18:10.456Z,96637.53
2022-10-13T14:20:43.799Z,96643.41
2022-10-13T14:23:11.589Z,96641.56
2022-10-13T14:25:39.445Z,96645.22
2022-10-13T14:28:12.492Z,96657.22
2022-10-13T14:30:44.064Z,96647.84
2022-10-13T14:33:11.597Z,96659.06
2022-10-13T14:35:49.067Z,96653.50
2022-10-13T14:38:16.802Z,96648.97
2022-10-13T14:40:44.438Z,96652.34
2022-10-13T14:43:11.979Z,96644.09
2022-10-13T14:45:41.723Z,96646.41
2022-10-13T14:48:11.847Z,96641.56
2022-10-13T14:50:41.163Z,96642.88
2022-10-13T14:53:15.405Z,96633.47
2022-10-13T14:55:43.081Z,96634.72
2022-10-13T14:58:13.219Z,96640.22
2022-10-13T15:00:43.781Z,96635.22
2022-10-13T15:03:12.726Z,96634.22
2022-10-13T15:05:40.375Z,96637.16
2022-10-13T15:08:08.210Z,96631.16
2022-10-13T15:10:35.819Z,96631.53
2022-10-13T15:13:03.393Z,96637.72
2022-10-13T15:15:34.059Z,96639.91
2022-10-13T15:18:01.618Z,96637.06
2022-10-13T15:20:30.691Z,96640.75
2022-10-13T15:23:00.741Z,96643.34
2022-10-13T15:25:28.602Z,96645.69
2022-10-13T15:27:59.377Z,96646.03
2022-10-13T15:30:27.063Z,96667.63
2022-10-13T15:33:01.574Z,96636.91
2022-10-13T15:35:35.833Z,96637.97
2022-10-13T15:38:06.010Z,96648.38
2022-10-13T15:40:33.921Z,96635.53
2022-10-13T15:43:01.736Z,96637.66
2022-10-13T15:45:29.412Z,96648.72
2022-10-13T15:48:02.673Z,96640.22
2022-10-13T15:50:32.381Z,96638.78
2022-10-13T15:53:05.615Z,96636.66
2022-10-13T15:55:33.496Z,96631.16
2022-10-13T15:58:01.676Z,96634.97
2022-10-13T16:00:30.758Z,96627.13
2022-10-13T16:03:04.431Z,96617.44
2022-10-13T16:05:33.867Z,96640.53
2022-10-13T16:08:01.586Z,96639.81
2022-10-13T16:10:33.856Z,96643.31
2022-10-13T16:13:03.966Z,96635.41
2022-10-13T16:15:31.825Z,96617.88
2022-10-13T16:18:00.564Z,96626.47
2022-10-13T16:20:32.920Z,96643.81
2022-10-13T16:23:02.175Z,96645.31
2022-10-13T16:25:31.919Z,96644.84
2022-10-13T16:28:00.776Z,96637.84
2022-10-13T16:30:30.476Z,96637.16
2022-10-13T16:33:01.265Z,96635.44
2022-10-13T16:35:29.404Z,96647.41
2022-10-13T16:37:59.965Z,96633.94
2022-10-13T16:40:29.282Z,96634.84
2022-10-13T16:42:57.989Z,96621.94
2022-10-13T16:45:41.330Z,96619.50
2022-10-13T16:48:14.094Z,96626.09
2022-10-13T16:50:41.643Z,96638.28
2022-10-13T16:53:11.117Z,96633.28
2022-10-13T16:55:41.786Z,96637.19
2022-10-13T16:58:11.471Z,96633.84
2022-10-13T17:00:41.129Z,96635.06
2022-10-13T17:03:11.857Z,96631.91
2022-10-13T17:05:39.434Z,96627.41
2022-10-13T17:08:07.239Z,96632.88
2022-10-13T17:10:35.175Z,96623.53
2022-10-13T17:13:04.446Z,96631.69
2022-10-13T17:15:42.334Z,96626.50
2022-10-13T17:18:09.995Z,96621.34
2022-10-13T17:20:37.580Z,96631.81
2022-10-13T17:23:05.309Z,96624.16
2022-10-13T17:25:37.355Z,96630.69
2022-10-13T17:28:06.679Z,96628.84
2022-10-13T17:30:37.078Z,96629.34
2022-10-13T17:33:05.042Z,96629.09
2022-10-13T17:35:33.332Z,96634.44
2022-10-13T17:38:00.924Z,96631.44
2022-10-13T17:40:28.877Z,96635.78
2022-10-13T17:42:57.113Z,96635.06
2022-10-13T17:45:27.968Z,96637.50
2022-10-13T17:47:58.650Z,96643.53
2022-10-13T17:50:27.639Z,96643.34
2022-10-13T17:52:55.336Z,96646.97
2022-10-13T17:55:26.017Z,96649.19
2022-10-13T17:57:53.570Z,96643.56
2022-10-13T18:00:21.517Z,96647.41
2022-10-13T18:02:53.333Z,96647.19
2022-10-13T18:05:21.085Z,96644.91
2022-10-13T18:07:48.683Z,96651.47
2022-10-13T18:10:17.908Z,96646.50
2022-10-13T18:12:45.629Z,96647.47
2022-10-13T18:15:13.292Z,96637.75
2022-10-13T18:17:41.027Z,96641.81
2022-10-13T18:20:11.618Z,96649.50
2022-10-13T18:22:39.172Z,96654.13
2022-10-13T18:25:07.237Z,96659.34
2022-10-13T18:27:34.808Z,96654.94
2022-10-13T18:30:03.010Z,96655.75
2022-10-13T18:32:30.662Z,96663.94
2022-10-13T18:34:58.574Z,96665.69
2022-10-13T18:37:30.868Z,96664.22
2022-10-13T18:40:04.758Z,96656.53
2022-10-13T18:42:32.740Z,96661.75
2022-10-13T18:45:01.066Z,96663.50
2022-10-13T18:47:28.929Z,96650.06
2022-10-13T18:49:56.684Z,96644.38
2022-10-13T18:52:24.763Z,96647.28
2022-10-13T18:54:56.857Z,96644.03
2022-10-13T18:57:24.787Z,96645.53
2022-10-13T18:59:52.724Z,96639.31
2022-10-13T19:02:20.709Z,96643.94
2022-10-13T19:04:48.622Z,96637.91
2022-10-13T19:07:16.251Z,96630.03
2022-10-13T19:09:43.823Z,96638.78
2022-10-13T19:12:14.319Z,96643.31
2022-10-13T19:14:41.921Z,96646.50
2022-10-13T19:17:12.278Z,96653.03
2022-10-13T19:19:42.893Z,96652.75
2022-10-13T19:22:10.945Z,96653.88
2022-10-13T19:24:39.092Z,96652.25
2022-10-13T19:27:07.361Z,96648.06
2022-10-13T19:29:36.547Z,96650.28
2022-10-13T19:32:07.635Z,96647.47
2022-10-13T19:34:35.264Z,96641.97
2022-10-13T19:37:03.523Z,96644.38
2022-10-13T19:39:32.405Z,96644.25
2022-10-13T19:42:01.870Z,96652.38
2022-10-13T19:44:29.509Z,96650.06
2022-10-13T19:46:58.822Z,96653.25
2022-10-13T19:49:30.381Z,96653.75
2022-10-13T19:51:58.404Z,96683.38
2022-10-13T19:54:30.197Z,96671.41
2022-10-13T19:57:01.193Z,96666.75
2022-10-13T19:59:28.970Z,96657.88
2022-10-13T20:01:57.982Z,96669.78
2022-10-13T20:04:28.182Z,96664.16
2022-10-13T20:06:57.318Z,96660.97
2022-10-13T20:09:29.224Z,96663.97
2022-10-13T20:12:01.867Z,96664.94
2022-10-13T20:14:29.530Z,96667.88
2022-10-13T20:17:01.511Z,96660.59
2022-10-13T20:19:32.733Z,96664.25
2022-10-13T20:22:01.675Z,96659.19
2022-10-13T20:24:29.266Z,96684.91
2022-10-13T20:27:00.112Z,96668.41
2022-10-13T20:29:27.658Z,96665.06
2022-10-13T20:31:57.299Z,96664.16
2022-10-13T20:34:27.534Z,96668.88
2022-10-13T20:36:55.570Z,96674.53
2022-10-13T20:39:23.132Z,96668.72
2022-10-13T20:41:53.609Z,96663.63
2022-10-13T20:44:21.175Z,96673.53
2022-10-13T20:46:51.546Z,96664.09
2022-10-13T20:49:19.336Z,96666.88
2022-10-13T20:52:00.887Z,96666.69
2022-10-13T20:54:28.433Z,96672.03
2022-10-13T20:56:58.086Z,96669.22
2022-10-13T20:59:25.964Z,96670.28
2022-10-13T21:01:53.547Z,96670.34
2022-10-13T21:04:23.733Z,96669.84
2022-10-13T21:06:55.875Z,96662.75
2022-10-13T21:09:26.614Z,96663.88
2022-10-13T21:11:56.652Z,96661.41
2022-10-13T21:14:25.989Z,96663.00
2022-10-13T21:16:53.817Z,96665.31
2022-10-13T21:19:23.716Z,96669.38
2022-10-13T21:21:54.133Z,96674.84
2022-10-13T21:24:21.667Z,96678.78
2022-10-13T21:26:49.190Z,96670.88
2022-10-13T21:29:18.339Z,96671.69
2022-10-13T21:31:48.822Z,96679.06
2022-10-13T21:34:16.385Z,96672.19
2022-10-13T21:36:45.373Z,96676.69
2022-10-13T21:39:17.696Z,96670.66
2022-10-13T21:41:45.347Z,96674.25
2022-10-13T21:44:13.546Z,96681.44
2022-10-13T21:46:41.129Z,96674.34
2022-10-13T21:49:09.352Z,96668.38
2022-10-13T21:51:39.743Z,96667.44
2022-10-13T21:54:09.598Z,96662.22
2022-10-13T21:56:40.235Z,96665.94
2022-10-13T21:59:08.402Z,96662.38
2022-10-13T22:01:36.370Z,96661.81
2022-10-13T22:04:03.993Z,96666.34
2022-10-13T22:06:32.892Z,96659.63
2022-10-13T22:09:01.132Z,96664.97
2022-10-13T22:11:32.604Z,96663.75
2022-10-13T22:14:01.776Z,96665.97
2022-10-13T22:16:31.090Z,96669.50
2022-10-13T22:18:58.905Z,96669.38
2022-10-13T22:21:27.491Z,96673.50
2022-10-13T22:23:58.890Z,96673.72
2022-10-13T22:26:26.954Z,96674.44
2022-10-13T22:28:54.955Z,96672.63
2022-10-13T22:31:26.361Z,96672.69
2022-10-13T22:33:55.209Z,96675.41
2022-10-13T22:36:23.530Z,96674.41
2022-10-13T22:38:52.120Z,96670.31
2022-10-13T22:41:19.963Z,96674.09
2022-10-13T22:43:56.381Z,96669.81
2022-10-13T22:46:26.442Z,96670.41
2022-10-13T22:48:53.974Z,96672.34
2022-10-13T22:51:21.843Z,96673.25
2022-10-13T22:53:52.538Z,96669.53
2022-10-13T22:56:20.868Z,96670.44
2022-10-13T22:58:50.334Z,96675.03
2022-10-13T23:01:17.929Z,96671.09
2022-10-13T23:03:49.082Z,96661.09
2022-10-13T23:06:17.810Z,96664.13
2022-10-13T23:08:46.146Z,96660.78
2022-10-13T23:11:14.066Z,96662.16
2022-10-13T23:13:44.534Z,96661.41
2022-10-13T23:16:14.804Z,96662.91
2022-10-13T23:18:42.548Z,96661.94
2022-10-13T23:21:13.574Z,96656.50
2022-10-13T23:23:41.661Z,96665.50
2022-10-13T23:26:09.790Z,96658.53
2022-10-13T23:28:37.862Z,96647.06
2022-10-13T23:31:06.444Z,96653.13
2022-10-13T23:33:34.078Z,96650.19
2022-10-13T23:36:01.876Z,96649.81
2022-10-13T23:38:31.592Z,96647.78
2022-10-13T23:41:09.745Z,96656.53
2022-10-13T23:43:37.687Z,96654.97
2022-10-13T23:46:05.464Z,96648.97
2022-10-13T23:48:33.337Z,96652.28
2022-10-13T23:51:06.145Z,96650.03
2022-10-13T23:53:36.555Z,96645.41
2022-10-13T23:56:07.499Z,96637.63
2022-10-13T23:58:36.463Z,96641.97
